Saint Peter, IL (62880)

1:09 AM CDT on July 26, 2016 (GMT -0500)
Kinmundy Atmospheric Research Laboratory | | Change Station

Elev 570 ft 38.78 °N, 88.89 °W | Updated 8 minutes ago

Clear
Clear
75.8 °F
Feels Like 75 °F
N
1.0
Wind Variable Wind from North
Gusts 2.0 mph

Today
High -- | Low -- °F
--% Chance of Precip.
Yesterday
High -- | Low -- °F
Precip. -- in
Pressure 30.00 in
Visibility 5.0 miles
Clouds Clear
Heat Index 75 °F
Dew Point 75 °F
Humidity 96%
Rainfall 0.00 in
Snow Depth Not available.
5:51 AM 8:11 PM
Waning Gibbous, 58% visible
METAR KSLO 260555Z AUTO 00000KT 5SM BR CLR 25/24 A3000 RMK AO2 T02470236 10288 20247 403120236
Pressure 30.00 in
Visibility 5.0 miles
Clouds Clear
Heat Index 75 °F
Dew Point 75 °F
Humidity 96%
Rainfall 0.00 in
Snow Depth Not available.
5:51 AM 8:11 PM
Waning Gibbous, 58% visible
METAR KSLO 260555Z AUTO 00000KT 5SM BR CLR 25/24 A3000 RMK AO2 T02470236 10288 20247 403120236

10-Day Weather Forecast

Almanac

Astronomy

Jul. 26, 2016 Rise Set
Actual Time
Civil Twilight
Nautical Twilight
Astronomical Twilight
Moon
Length of Visible Light
Length of Day
Tomorrow will be .
, % of the Moon is Illuminated

Today's Extremes

State Highs State Lows

Community

WunderPhotos

Upload Photos

1,927,547 photos uploaded!

WunderBlog® & News

Nearby

Air Quality

  Air Quality AQ Index Pollutant
Not available.

Snow Depth

Station Depth Elevation

Earthquake Activity

City Distance Mag. Time & Date
Minimum magnitude displayed is 2.5.

Coastal Water Temperatures

Place Temperature

Stations

Nearby Weather Stations

Station Location Temp. Windchill Dew Point Humidity Wind Precip. Elev Updated Type
                   

Watches & Warnings

There are currently no watches in effect.